createdAt,value
2024-05-09T00:00:30.760Z,2.10
2024-05-09T00:03:52.512Z,1.90
2024-05-09T00:07:04.491Z,1.70
2024-05-09T00:09:38.424Z,2.00
2024-05-09T00:12:51.448Z,1.70
2024-05-09T00:16:03.906Z,1.90
2024-05-09T00:18:52.877Z,1.60
2024-05-09T00:21:21.093Z,1.80
2024-05-09T00:24:28.851Z,1.80
2024-05-09T00:27:20.480Z,1.90
2024-05-09T00:30:36.738Z,2.20
2024-05-09T00:33:48.600Z,1.90
2024-05-09T00:36:44.625Z,2.10
2024-05-09T00:39:44.124Z,1.70
2024-05-09T00:43:14.187Z,1.80
2024-05-09T00:46:19.880Z,1.50
2024-05-09T00:49:21.068Z,1.70
2024-05-09T00:52:10.377Z,1.50
2024-05-09T00:55:10.404Z,1.80
2024-05-09T00:58:17.385Z,1.60
2024-05-09T01:01:23.773Z,1.80
2024-05-09T01:04:17.768Z,2.30
2024-05-09T01:06:57.832Z,1.80
2024-05-09T01:09:36.342Z,1.70
2024-05-09T01:12:52.418Z,1.60
2024-05-09T01:15:48.336Z,1.80
2024-05-09T01:18:47.159Z,2.10
2024-05-09T01:21:59.222Z,1.90
2024-05-09T01:25:17.790Z,1.90
2024-05-09T01:29:05.532Z,1.80
2024-05-09T01:31:51.535Z,1.80
2024-05-09T01:35:43.476Z,1.70
2024-05-09T01:39:43.529Z,1.90
2024-05-09T01:43:01.470Z,1.80
2024-05-09T01:46:06.583Z,1.70
2024-05-09T01:49:04.058Z,1.90
2024-05-09T01:52:17.672Z,1.70
2024-05-09T01:55:29.353Z,1.90
2024-05-09T01:58:55.008Z,1.90
2024-05-09T02:02:33.888Z,1.80
2024-05-09T02:05:50.429Z,1.90
2024-05-09T02:09:22.047Z,2.00
2024-05-09T02:12:33.739Z,2.10
2024-05-09T02:16:05.620Z,2.00
2024-05-09T02:19:38.187Z,2.10
2024-05-09T02:23:28.727Z,1.70
2024-05-09T02:26:57.171Z,1.90
2024-05-09T02:29:57.908Z,2.30
2024-05-09T02:33:22.826Z,2.10
2024-05-09T02:37:01.606Z,2.10
2024-05-09T02:40:55.908Z,2.20
2024-05-09T02:44:16.718Z,2.00
2024-05-09T02:47:45.869Z,2.00
2024-05-09T02:51:17.500Z,1.90
2024-05-09T02:54:14.360Z,1.60
2024-05-09T02:57:41.808Z,1.90
2024-05-09T03:01:23.436Z,1.40
2024-05-09T03:04:55.330Z,2.30
2024-05-09T03:08:44.007Z,2.30
2024-05-09T03:12:07.165Z,1.60
2024-05-09T03:15:28.233Z,2.10
2024-05-09T03:18:56.561Z,2.30
2024-05-09T03:22:12.457Z,1.90
2024-05-09T03:25:46.730Z,1.80
2024-05-09T03:29:06.946Z,2.10
2024-05-09T03:32:39.095Z,2.00
2024-05-09T03:36:14.158Z,2.00
2024-05-09T03:39:38.248Z,2.10
2024-05-09T03:43:04.183Z,2.40
2024-05-09T03:46:04.909Z,2.30
2024-05-09T03:49:22.466Z,2.80
2024-05-09T03:52:16.626Z,8.90
2024-05-09T03:55:55.766Z,5.10
2024-05-09T03:59:00.375Z,3.20
2024-05-09T04:06:05.012Z,3.80
2024-05-09T04:09:16.282Z,4.50
2024-05-09T04:11:58.157Z,4.90
2024-05-09T04:15:32.491Z,5.30
2024-05-09T04:18:45.529Z,5.50
2024-05-09T04:22:02.460Z,4.50
2024-05-09T04:25:33.246Z,7.30
2024-05-09T04:29:15.840Z,6.30
2024-05-09T04:35:30.150Z,3.90
2024-05-09T04:39:45.802Z,3.10
2024-05-09T04:43:34.623Z,3.30
2024-05-09T04:47:09.246Z,2.60
2024-05-09T17:37:15.578Z,1.80
2024-05-09T17:40:56.115Z,1.50
2024-05-09T17:43:42.009Z,1.40
2024-05-09T17:46:30.991Z,1.30
2024-05-09T17:49:15.593Z,3.20
2024-05-09T17:52:05.270Z,1.90
2024-05-09T17:54:33.828Z,2.40
2024-05-09T17:57:05.036Z,1.60
2024-05-09T17:59:56.271Z,1.60
2024-05-09T18:02:47.879Z,2.40
2024-05-09T18:05:19.047Z,1.90
2024-05-09T18:07:52.714Z,3.40
2024-05-09T18:11:11.189Z,4.50
2024-05-09T18:14:14.906Z,4.20
2024-05-09T18:17:55.257Z,4.40
2024-05-09T18:20:43.946Z,4.60
2024-05-09T18:23:57.385Z,4.30
2024-05-09T18:26:50.055Z,3.80
2024-05-09T18:30:17.359Z,4.30
2024-05-09T18:33:45.708Z,4.10
2024-05-09T18:36:46.399Z,3.70
2024-05-09T18:39:50.592Z,4.00
2024-05-09T18:43:25.948Z,2.90
2024-05-09T18:46:56.325Z,3.00
2024-05-09T18:50:28.607Z,3.50
2024-05-09T18:54:05.650Z,3.90
2024-05-09T18:57:26.471Z,3.60
2024-05-09T19:05:12.487Z,3.60
2024-05-09T19:08:07.599Z,3.60
2024-05-09T19:11:26.233Z,2.70
2024-05-09T19:14:26.190Z,2.80
2024-05-09T19:17:16.329Z,3.10
2024-05-09T19:20:48.524Z,2.60
2024-05-09T19:24:00.315Z,2.80
2024-05-09T19:27:49.331Z,2.50
2024-05-09T19:31:04.112Z,2.50
2024-05-09T19:34:22.201Z,2.00
2024-05-09T19:42:20.719Z,2.40
2024-05-09T19:45:36.217Z,2.60
2024-05-09T19:48:31.470Z,2.20
2024-05-09T19:51:43.003Z,2.90
2024-05-09T19:54:27.085Z,2.60
2024-05-09T19:57:37.688Z,2.50
2024-05-09T20:00:29.411Z,2.90
2024-05-09T20:03:44.090Z,2.80
2024-05-09T20:06:26.298Z,2.90
2024-05-09T20:09:36.364Z,3.70
2024-05-09T20:12:37.811Z,3.20
2024-05-09T20:15:39.548Z,3.10
2024-05-09T20:18:45.279Z,3.40
2024-05-09T20:21:50.552Z,2.80
2024-05-09T20:24:28.397Z,3.80
2024-05-09T20:27:06.343Z,3.40
2024-05-09T20:29:55.726Z,4.10
2024-05-09T20:33:14.506Z,2.90
2024-05-09T20:36:21.967Z,5.40
2024-05-09T20:39:29.849Z,3.70
2024-05-09T20:42:46.739Z,3.50
2024-05-09T20:46:08.346Z,3.70
2024-05-09T20:49:42.830Z,3.90
2024-05-09T20:52:25.240Z,3.80
2024-05-09T20:55:36.506Z,3.60
2024-05-09T20:58:38.871Z,3.70
2024-05-09T21:01:40.451Z,3.80
2024-05-09T21:05:00.984Z,7.40
2024-05-09T21:08:28.255Z,13.60
2024-05-09T21:11:27.908Z,7.50
2024-05-09T21:14:40.195Z,6.70
2024-05-09T21:18:04.961Z,8.30
2024-05-09T21:21:11.426Z,9.90
2024-05-09T21:24:35.374Z,11.80
2024-05-09T21:27:45.016Z,12.60
2024-05-09T21:30:52.225Z,11.90
2024-05-09T21:34:15.078Z,10.80
2024-05-09T21:41:49.062Z,9.50
2024-05-09T21:45:20.344Z,9.00
2024-05-09T21:48:59.552Z,10.00
2024-05-09T21:52:30.044Z,9.00
2024-05-09T21:55:17.903Z,8.40
2024-05-09T21:58:52.435Z,9.50
2024-05-09T22:02:12.443Z,8.50
2024-05-09T22:04:55.678Z,9.70
2024-05-09T22:07:47.350Z,8.20
2024-05-09T22:10:36.543Z,5.40
2024-05-09T22:13:25.899Z,6.40
2024-05-09T22:16:28.140Z,5.50
2024-05-09T22:19:29.445Z,6.20
2024-05-09T22:22:11.426Z,5.70
2024-05-09T22:24:46.453Z,4.90
2024-05-09T22:27:47.187Z,5.60
2024-05-09T22:31:10.334Z,5.60
2024-05-09T22:34:00.737Z,5.90
2024-05-09T22:36:51.680Z,6.60
2024-05-09T22:39:32.128Z,6.20
2024-05-09T22:42:33.235Z,6.50
2024-05-09T22:45:24.707Z,6.10
2024-05-09T22:47:56.726Z,6.40
2024-05-09T22:51:05.552Z,8.30
2024-05-09T22:54:08.767Z,6.50
2024-05-09T22:57:20.490Z,6.20
2024-05-09T23:00:01.021Z,5.70
2024-05-09T23:02:29.753Z,6.60
2024-05-09T23:05:44.300Z,6.80
2024-05-09T23:08:18.689Z,6.50
2024-05-09T23:10:57.051Z,6.30
2024-05-09T23:13:39.326Z,6.70
2024-05-09T23:17:02.957Z,6.60
2024-05-09T23:20:15.071Z,6.10
2024-05-09T23:24:06.751Z,6.20
2024-05-09T23:26:56.213Z,6.30
2024-05-09T23:30:43.883Z,6.80
2024-05-09T23:34:05.035Z,6.20
2024-05-09T23:41:45.791Z,6.20
2024-05-09T23:45:21.777Z,6.30
2024-05-09T23:48:24.963Z,7.40
2024-05-09T23:51:47.932Z,6.20
2024-05-09T23:55:07.541Z,6.40
2024-05-09T23:58:28.817Z,6.30
